Time,TemperatureF,DewpointF,PressureIn,WindDirection,WindDirectionDegrees,WindSpeedMPH,WindSpeedGustMPH,Humidity,HourlyPrecipIn,Conditions,Clouds,dailyrainin,SoftwareType,DateUTC
2013-04-22 00:00:00,78.8,44.8,29.32,South,173,0.0,4.0,30,0.00,,---,0.00,VWS V14.01,2013-04-22 07:00:00,
2013-04-22 00:05:00,79.2,46.0,29.29,West,259,0.0,4.9,31,0.00,,---,0.00,VWS V14.01,2013-04-22 07:05:00,
2013-04-22 00:10:00,79.2,45.1,29.29,NNW,345,0.0,3.6,30,0.00,,---,0.00,VWS V14.01,2013-04-22 07:10:00,
2013-04-22 00:15:00,79.0,44.9,29.29,NW,306,3.1,5.4,30,0.00,,---,0.00,VWS V14.01,2013-04-22 07:15:00,
2013-04-22 00:20:00,79.3,46.1,29.29,SSW,205,0.0,4.9,31,0.00,,---,0.00,VWS V14.01,2013-04-22 07:20:00,
2013-04-22 00:25:00,79.9,45.7,29.29,WNW,297,0.0,4.0,30,0.00,,---,0.00,VWS V14.01,2013-04-22 07:25:00,
2013-04-22 00:30:00,80.2,46.0,29.29,North,11,6.7,6.7,30,0.00,,---,0.00,VWS V14.01,2013-04-22 07:30:00,
2013-04-22 00:35:00,80.4,45.3,29.29,NNW,329,4.9,6.7,29,0.00,,---,0.00,VWS V14.01,2013-04-22 07:35:00,
2013-04-22 00:40:00,80.1,45.0,29.29,ENE,76,3.1,4.9,29,0.00,,---,0.00,VWS V14.01,2013-04-22 07:40:00,
2013-04-22 00:45:00,79.9,44.8,29.29,SE,140,0.0,5.8,29,0.00,,---,0.00,VWS V14.01,2013-04-22 07:45:00,
2013-04-22 00:50:00,79.9,44.8,29.29,South,183,3.1,5.4,29,0.00,,---,0.00,VWS V14.01,2013-04-22 07:50:00,
2013-04-22 00:55:00,79.9,43.9,29.29,NNE,27,3.1,5.4,28,0.00,,---,0.00,VWS V14.01,2013-04-22 07:55:00,
2013-04-22 01:00:00,80.1,45.0,29.29,ENE,72,2.2,6.3,29,0.00,,---,0.00,VWS V14.01,2013-04-22 08:00:00,
2013-04-22 01:05:00,80.4,45.3,29.29,SE,134,2.2,5.4,29,0.00,,---,0.00,VWS V14.01,2013-04-22 08:05:00,
2013-04-22 01:10:00,81.3,45.1,29.29,WNW,283,3.1,4.9,28,0.00,,---,0.00,VWS V14.01,2013-04-22 08:10:00,
2013-04-22 01:15:00,81.3,45.1,29.29,NW,315,4.9,5.8,28,0.00,,---,0.00,VWS V14.01,2013-04-22 08:15:00,
2013-04-22 01:20:00,81.3,44.2,29.26,NE,42,2.7,6.3,27,0.00,,---,0.00,VWS V14.01,2013-04-22 08:20:00,
2013-04-22 01:25:00,81.7,44.5,29.26,North,0,0.0,8.1,27,0.00,,---,0.00,VWS V14.01,2013-04-22 08:25:00,
2013-04-22 01:30:00,82.4,44.1,29.26,East,91,0.0,5.4,26,0.00,,---,0.00,VWS V14.01,2013-04-22 08:30:00,
2013-04-22 01:35:00,82.8,44.4,29.26,North,4,2.7,6.3,26,0.00,,---,0.00,VWS V14.01,2013-04-22 08:35:00,
2013-04-22 01:40:00,82.8,44.4,29.26,NE,49,3.1,8.1,26,0.00,,---,0.00,VWS V14.01,2013-04-22 08:40:00,
2013-04-22 01:45:00,82.9,44.6,29.26,West,265,0.0,8.1,26,0.00,,---,0.00,VWS V14.01,2013-04-22 08:45:00,
2013-04-22 01:50:00,82.8,44.4,29.26,NNW,339,0.0,8.3,26,0.00,,---,0.00,VWS V14.01,2013-04-22 08:50:00,
2013-04-22 01:55:00,83.3,44.9,29.26,NE,36,3.6,8.1,26,0.00,,---,0.00,VWS V14.01,2013-04-22 08:55:00,
2013-04-22 02:00:00,83.7,42.0,29.26,NNW,335,5.8,7.6,23,0.00,,---,0.00,VWS V14.01,2013-04-22 09:00:00,
2013-04-22 02:05:00,83.5,41.8,29.26,NE,54,3.6,7.6,23,0.00,,---,0.00,VWS V14.01,2013-04-22 09:05:00,
2013-04-22 02:10:00,83.7,42.0,29.26,NNE,27,2.7,5.4,23,0.00,,---,0.00,VWS V14.01,2013-04-22 09:10:00,
2013-04-22 02:15:00,83.8,39.8,29.26,NW,326,5.8,7.6,21,0.00,,---,0.00,VWS V14.01,2013-04-22 09:15:00,
2013-04-22 02:20:00,83.8,42.1,29.26,North,0,4.0,5.8,23,0.00,,---,0.00,VWS V14.01,2013-04-22 09:20:00,
2013-04-22 02:25:00,84.0,42.3,29.26,ESE,103,0.0,4.0,23,0.00,,---,0.00,VWS V14.01,2013-04-22 09:25:00,
2013-04-22 02:30:00,84.6,42.7,29.26,South,187,2.7,5.8,23,0.00,,---,0.00,VWS V14.01,2013-04-22 09:30:00,
2013-04-22 02:35:00,85.1,39.6,29.26,ESE,115,3.6,4.9,20,0.00,,---,0.00,VWS V14.01,2013-04-22 09:35:00,
2013-04-22 02:40:00,84.9,39.4,29.26,East,101,2.7,10.1,20,0.00,,---,0.00,VWS V14.01,2013-04-22 09:40:00,
2013-04-22 02:45:00,84.9,39.4,29.26,SSE,151,3.6,7.6,20,0.00,,---,0.00,VWS V14.01,2013-04-22 09:45:00,
2013-04-22 02:50:00,84.9,39.4,29.24,SE,137,3.1,4.0,20,0.00,,---,0.00,VWS V14.01,2013-04-22 09:50:00,
2013-04-22 02:55:00,85.1,39.6,29.24,ESE,103,2.2,5.4,20,0.00,,---,0.00,VWS V14.01,2013-04-22 09:55:00,
2013-04-22 03:00:00,85.3,39.7,29.24,South,169,3.6,5.4,20,0.00,,---,0.00,VWS V14.01,2013-04-22 10:00:00,
2013-04-22 03:05:00,85.1,39.6,29.24,NNW,348,3.1,7.6,20,0.00,,---,0.00,VWS V14.01,2013-04-22 10:05:00,
2013-04-22 03:10:00,84.9,36.7,29.24,North,350,2.7,8.7,18,0.00,,---,0.00,VWS V14.01,2013-04-22 10:10:00,
2013-04-22 03:15:00,85.1,36.9,29.24,SSW,195,0.0,3.6,18,0.00,,---,0.00,VWS V14.01,2013-04-22 10:15:00,
2013-04-22 03:20:00,85.1,36.9,29.24,North,7,4.9,7.6,18,0.00,,---,0.00,VWS V14.01,2013-04-22 10:20:00,
2013-04-22 03:25:00,85.1,36.9,29.24,NNE,12,4.0,5.8,18,0.00,,---,0.00,VWS V14.01,2013-04-22 10:25:00,
2013-04-22 03:30:00,85.1,36.9,29.24,SSW,209,5.4,6.3,18,0.00,,---,0.00,VWS V14.01,2013-04-22 10:30:00,
2013-04-22 03:35:00,85.1,36.9,29.24,SSW,203,0.0,6.3,18,0.00,,---,0.00,VWS V14.01,2013-04-22 10:35:00,
2013-04-22 03:40:00,84.9,36.7,29.24,NW,320,3.6,7.2,18,0.00,,---,0.00,VWS V14.01,2013-04-22 10:40:00,
2013-04-22 03:45:00,84.9,36.7,29.23,East,86,0.0,7.6,18,0.00,,---,0.00,VWS V14.01,2013-04-22 10:45:00,
2013-04-22 03:50:00,84.9,36.7,29.24,WNW,300,3.1,6.3,18,0.00,,---,0.00,VWS V14.01,2013-04-22 10:50:00,
2013-04-22 03:55:00,84.7,36.6,29.24,NNE,16,3.6,7.2,18,0.00,,---,0.00,VWS V14.01,2013-04-22 10:55:00,
2013-04-22 04:00:00,84.9,36.7,29.23,West,274,4.9,5.4,18,0.00,,---,0.00,VWS V14.01,2013-04-22 11:00:00,
2013-04-22 04:05:00,84.7,36.6,29.24,NW,311,2.7,7.2,18,0.00,,---,0.00,VWS V14.01,2013-04-22 11:05:00,
2013-04-22 04:10:00,84.6,36.4,29.24,North,353,0.0,6.3,18,0.00,,---,0.00,VWS V14.01,2013-04-22 11:10:00,
2013-04-22 04:15:00,84.6,36.4,29.24,WNW,299,5.4,6.3,18,0.00,,---,0.00,VWS V14.01,2013-04-22 11:15:00,
2013-04-22 04:20:00,84.2,36.2,29.24,NNW,340,3.1,8.1,18,0.00,,---,0.00,VWS V14.01,2013-04-22 11:20:00,
2013-04-22 04:25:00,84.2,31.6,29.23,East,83,3.1,15.9,15,0.00,,---,0.00,VWS V14.01,2013-04-22 11:25:00,
2013-04-22 04:30:00,84.0,33.0,29.24,North,0,2.7,8.1,16,0.00,,---,0.00,VWS V14.01,2013-04-22 11:30:00,
2013-04-22 04:35:00,84.0,33.0,29.20,WNW,299,4.9,11.0,16,0.00,,---,0.00,VWS V14.01,2013-04-22 11:35:00,
2013-04-22 04:40:00,83.7,32.8,29.20,North,5,4.0,7.6,16,0.00,,---,0.00,VWS V14.01,2013-04-22 11:40:00,
2013-04-22 04:45:00,83.7,32.8,29.20,WNW,300,4.0,4.9,16,0.00,,---,0.00,VWS V14.01,2013-04-22 11:45:00,
2013-04-22 04:50:00,83.5,32.6,29.20,South,175,0.0,7.6,16,0.00,,---,0.00,VWS V14.01,2013-04-22 11:50:00,
2013-04-22 04:55:00,83.1,32.3,29.21,West,266,5.4,8.3,16,0.00,,---,0.00,VWS V14.01,2013-04-22 11:55:00,
2013-04-22 05:00:00,82.9,32.2,29.21,West,280,2.7,8.3,16,0.00,,---,0.00,VWS V14.01,2013-04-22 12:00:00,
2013-04-22 05:05:00,82.8,32.0,29.20,NNW,338,6.3,8.3,16,0.00,,---,0.00,VWS V14.01,2013-04-22 12:05:00,
2013-04-22 05:10:00,82.8,32.0,29.21,North,353,5.8,6.3,16,0.00,,---,0.00,VWS V14.01,2013-04-22 12:10:00,
2013-04-22 05:15:00,82.8,32.0,29.20,NE,44,2.7,13.2,16,0.00,,---,0.00,VWS V14.01,2013-04-22 12:15:00,
2013-04-22 05:20:00,82.6,31.9,29.20,WNW,297,3.1,6.3,16,0.00,,---,0.00,VWS V14.01,2013-04-22 12:20:00,
2013-04-22 05:23:00,59.7,41.1,29.29,NE,52,3.6,6.3,50,0.00,,---,0.00,VWS V14.01,2013-04-22 12:23:00,
2013-04-22 05:25:00,82.6,31.9,29.20,WNW,303,3.1,7.2,16,0.00,,---,0.00,VWS V14.01,2013-04-22 12:25:00,
2013-04-22 05:30:00,84.0,33.0,29.24,North,0,2.7,8.1,16,0.00,,---,0.00,VWS V14.01,2013-04-22 12:30:00,
2013-04-22 05:33:00,59.4,41.2,29.29,ENE,60,4.0,6.3,51,0.00,,---,0.00,VWS V14.01,2013-04-22 12:33:00,
2013-04-22 05:35:00,82.2,31.6,29.21,North,4,10.1,10.1,16,0.00,,---,0.00,VWS V14.01,2013-04-22 12:35:00,
2013-04-22 05:40:00,82.2,31.6,29.21,North,0,7.6,10.1,16,0.00,,---,0.00,VWS V14.01,2013-04-22 12:40:00,
2013-04-22 05:44:00,58.6,41.6,29.29,ENE,75,5.4,6.3,53,0.00,,---,0.00,VWS V14.01,2013-04-22 12:44:00,
2013-04-22 05:45:00,82.0,31.5,29.21,North,7,0.0,8.3,16,0.00,,---,0.00,VWS V14.01,2013-04-22 12:45:00,
2013-04-22 05:50:00,81.9,31.3,29.21,West,268,3.6,4.0,16,0.00,,---,0.00,VWS V14.01,2013-04-22 12:50:00,
2013-04-22 05:54:00,58.5,41.9,29.29,NE,46,2.7,6.3,54,0.00,,---,0.00,VWS V14.01,2013-04-22 12:54:00,
2013-04-22 05:55:00,81.5,31.0,29.21,WSW,250,3.6,4.0,16,0.00,,---,0.00,VWS V14.01,2013-04-22 12:55:00,
2013-04-22 06:00:00,81.1,30.7,29.21,NW,316,3.1,7.6,16,0.00,,---,0.00,VWS V14.01,2013-04-22 13:00:00,
2013-04-22 06:05:00,81.0,30.6,29.21,West,269,4.0,5.4,16,0.00,,---,0.00,VWS V14.01,2013-04-22 13:05:00,
2013-04-22 06:08:00,57.7,41.7,29.29,NNE,27,4.0,7.2,55,0.00,,---,0.00,VWS V14.01,2013-04-22 13:08:00,
2013-04-22 06:10:00,80.8,30.5,29.21,North,11,2.7,6.3,16,0.00,,---,0.00,VWS V14.01,2013-04-22 13:10:00,
2013-04-22 06:15:00,80.6,30.3,29.21,WNW,291,0.0,5.4,16,0.00,,---,0.00,VWS V14.01,2013-04-22 13:15:00,
2013-04-22 06:18:00,57.9,41.9,29.29,NE,38,3.1,8.3,55,0.00,,---,0.00,VWS V14.01,2013-04-22 13:18:00,
2013-04-22 06:20:00,80.4,31.7,29.21,West,280,0.0,4.0,17,0.00,,---,0.00,VWS V14.01,2013-04-22 13:20:00,
2013-04-22 06:23:00,57.9,41.4,29.29,NE,55,4.0,8.7,54,0.00,,---,0.00,VWS V14.01,2013-04-22 13:23:00,
2013-04-22 06:25:00,80.2,31.5,29.21,NW,307,3.1,5.4,17,0.00,,---,0.00,VWS V14.01,2013-04-22 13:25:00,
2013-04-22 06:29:00,58.1,41.6,29.29,NE,38,2.7,5.8,54,0.00,,---,0.00,VWS V14.01,2013-04-22 13:29:00,
2013-04-22 06:30:00,79.9,31.2,29.21,NNW,345,5.4,8.3,17,0.00,,---,0.00,VWS V14.01,2013-04-22 13:30:00,
2013-04-22 06:34:00,58.3,41.2,29.29,NE,39,3.1,5.8,53,0.00,,---,0.00,VWS V14.01,2013-04-22 13:34:00,
2013-04-22 06:35:00,79.7,31.1,29.21,North,357,0.0,8.1,17,0.00,,---,0.00,VWS V14.01,2013-04-22 13:35:00,
2013-04-22 06:40:00,79.5,30.9,29.21,North,353,2.7,6.3,17,0.00,,---,0.00,VWS V14.01,2013-04-22 13:40:00,
2013-04-22 06:44:00,58.5,41.9,29.29,NE,42,5.4,6.3,54,0.00,,---,0.00,VWS V14.01,2013-04-22 13:44:00,
2013-04-22 06:45:00,79.0,30.5,29.21,NNW,338,0.0,2.7,17,0.00,,---,0.00,VWS V14.01,2013-04-22 13:45:00,
2013-04-22 06:50:00,78.8,30.4,29.21,North,353,0.0,5.8,17,0.00,,---,0.00,VWS V14.01,2013-04-22 13:50:00,
2013-04-22 06:54:00,58.5,42.4,29.29,East,81,3.1,7.2,55,0.00,,---,0.00,VWS V14.01,2013-04-22 13:54:00,
2013-04-22 06:55:00,78.3,33.9,29.21,North,353,0.0,0.0,20,0.00,,---,0.00,VWS V14.01,2013-04-22 13:55:00,
2013-04-22 06:59:00,58.8,42.2,29.29,NE,53,3.1,6.3,54,0.00,,---,0.00,VWS V14.01,2013-04-22 13:59:00,
2013-04-22 07:00:00,78.1,33.8,29.21,WSW,258,0.0,3.1,20,0.00,,---,0.00,VWS V14.01,2013-04-22 14:00:00,
2013-04-22 07:05:00,77.7,33.5,29.21,NNE,14,0.0,3.6,20,0.00,,---,0.00,VWS V14.01,2013-04-22 14:05:00,
2013-04-22 07:09:00,59.7,43.1,29.29,NE,35,3.6,7.6,54,0.00,,---,0.00,VWS V14.01,2013-04-22 14:09:00,
2013-04-22 07:10:00,77.4,29.2,29.21,West,275,2.7,4.5,17,0.00,,---,0.00,VWS V14.01,2013-04-22 14:10:00,
2013-04-22 07:14:00,61.2,42.9,29.29,NE,51,5.4,6.3,51,0.00,,---,0.00,VWS V14.01,2013-04-22 14:14:00,
2013-04-22 07:15:00,77.4,29.2,29.21,NNE,27,0.0,4.0,17,0.00,,---,0.00,VWS V14.01,2013-04-22 14:15:00,
2013-04-22 07:19:00,61.3,42.6,29.29,NE,54,3.6,7.6,50,0.00,,---,0.00,VWS V14.01,2013-04-22 14:19:00,
2013-04-22 07:20:00,77.0,32.9,29.21,North,9,0.0,0.0,20,0.00,,---,0.00,VWS V14.01,2013-04-22 14:20:00,
2013-04-22 07:25:00,76.8,32.8,29.21,North,2,3.6,3.6,20,0.00,,---,0.00,VWS V14.01,2013-04-22 14:25:00,
2013-04-22 07:30:00,76.6,32.6,29.21,NW,321,0.0,3.6,20,0.00,,---,0.00,VWS V14.01,2013-04-22 14:30:00,
2013-04-22 07:34:00,62.4,43.0,29.32,NNE,17,2.7,5.8,49,0.00,,---,0.00,VWS V14.01,2013-04-22 14:34:00,
2013-04-22 07:35:00,76.5,32.5,29.21,WNW,284,0.0,2.7,20,0.00,,---,0.00,VWS V14.01,2013-04-22 14:35:00,
2013-04-22 07:39:00,62.6,42.1,29.32,ENE,75,4.0,8.3,47,0.00,,---,0.00,VWS V14.01,2013-04-22 14:39:00,
2013-04-22 07:40:00,76.3,32.3,29.21,WNW,284,0.0,0.0,20,0.00,,---,0.00,VWS V14.01,2013-04-22 14:40:00,
2013-04-22 07:44:00,63.0,42.4,29.32,ENE,65,4.0,7.6,47,0.00,,---,0.00,VWS V14.01,2013-04-22 14:44:00,
2013-04-22 07:45:00,76.3,34.7,29.21,WNW,284,0.0,0.0,22,0.00,,---,0.00,VWS V14.01,2013-04-22 14:45:00,
2013-04-22 07:49:00,63.5,42.9,29.32,North,4,2.7,6.3,47,0.00,,---,0.00,VWS V14.01,2013-04-22 14:49:00,
2013-04-22 07:50:00,76.3,34.7,29.21,WNW,284,0.0,0.0,22,0.00,,---,0.00,VWS V14.01,2013-04-22 14:50:00,
2013-04-22 07:54:00,64.4,43.8,29.32,ENE,58,5.8,6.3,47,0.00,,---,0.00,VWS V14.01,2013-04-22 14:54:00,
2013-04-22 07:55:00,76.1,34.5,29.21,WNW,284,0.0,0.0,22,0.00,,---,0.00,VWS V14.01,2013-04-22 14:55:00,
2013-04-22 08:00:00,75.4,33.9,29.21,WNW,284,0.0,0.0,22,0.00,,---,0.00,VWS V14.01,2013-04-22 15:00:00,
2013-04-22 08:04:00,64.9,43.7,29.32,NE,42,3.1,5.8,46,0.00,,---,0.00,VWS V14.01,2013-04-22 15:04:00,
2013-04-22 08:05:00,75.4,33.9,29.21,WNW,284,0.0,0.0,22,0.00,,---,0.00,VWS V14.01,2013-04-22 15:05:00,
2013-04-22 08:09:00,65.3,44.0,29.32,East,90,4.0,4.0,46,0.00,,---,0.00,VWS V14.01,2013-04-22 15:09:00,
2013-04-22 08:10:00,75.4,33.9,29.21,WNW,284,0.0,0.0,22,0.00,,---,0.00,VWS V14.01,2013-04-22 15:10:00,
2013-04-22 08:15:00,75.2,33.8,29.21,WNW,284,0.0,0.0,22,0.00,,---,0.00,VWS V14.01,2013-04-22 15:15:00,
2013-04-22 08:19:00,66.0,44.7,29.32,East,88,2.7,6.3,46,0.00,,---,0.00,VWS V14.01,2013-04-22 15:19:00,
2013-04-22 08:20:00,74.8,36.7,29.21,WNW,284,0.0,0.0,25,0.00,,---,0.00,VWS V14.01,2013-04-22 15:20:00,
2013-04-22 08:24:00,66.6,44.6,29.32,East,79,3.1,5.4,45,0.00,,---,0.00,VWS V14.01,2013-04-22 15:24:00,
2013-04-22 08:25:00,74.5,36.4,29.21,WNW,284,0.0,0.0,25,0.00,,---,0.00,VWS V14.01,2013-04-22 15:25:00,
2013-04-22 08:30:00,73.9,35.9,29.21,WNW,284,0.0,0.0,25,0.00,,---,0.00,VWS V14.01,2013-04-22 15:30:00,
2013-04-22 08:34:00,67.3,44.7,29.32,ENE,61,2.7,5.4,44,0.00,,---,0.00,VWS V14.01,2013-04-22 15:34:00,
2013-04-22 08:35:00,73.8,35.8,29.21,WNW,284,0.0,0.0,25,0.00,,---,0.00,VWS V14.01,2013-04-22 15:35:00,
2013-04-22 08:40:00,73.4,35.5,29.21,WNW,284,0.0,0.0,25,0.00,,---,0.00,VWS V14.01,2013-04-22 15:40:00,
2013-04-22 08:44:00,67.3,44.7,29.32,East,86,0.0,5.4,44,0.00,,---,0.00,VWS V14.01,2013-04-22 15:44:00,
2013-04-22 08:45:00,72.7,35.8,29.21,WNW,284,0.0,0.0,26,0.00,,---,0.00,VWS V14.01,2013-04-22 15:45:00,
2013-04-22 08:50:00,71.8,37.0,29.21,WNW,284,0.0,0.0,28,0.00,,---,0.00,VWS V14.01,2013-04-22 15:50:00,
2013-04-22 08:54:00,67.6,44.4,29.32,NE,47,2.7,4.9,43,0.00,,---,0.00,VWS V14.01,2013-04-22 15:54:00,
2013-04-22 08:55:00,70.9,37.1,29.21,WNW,285,0.0,0.0,29,0.00,,---,0.00,VWS V14.01,2013-04-22 15:55:00,
2013-04-22 09:00:00,70.3,36.6,29.21,WNW,287,0.0,0.0,29,0.00,,---,0.00,VWS V14.01,2013-04-22 16:00:00,
2013-04-22 09:04:00,69.3,45.8,29.32,East,83,0.0,4.0,43,0.00,,---,0.00,VWS V14.01,2013-04-22 16:04:00,
2013-04-22 09:05:00,70.2,37.3,29.21,WNW,287,0.0,0.0,30,0.00,,---,0.00,VWS V14.01,2013-04-22 16:05:00,
2013-04-22 09:10:00,70.2,37.3,29.21,North,4,0.0,0.0,30,0.00,,---,0.00,VWS V14.01,2013-04-22 16:10:00,
2013-04-22 09:13:00,70.2,44.7,29.32,NE,51,2.7,4.9,40,0.00,,---,0.00,VWS V14.01,2013-04-22 16:13:00,
2013-04-22 09:15:00,70.0,37.2,29.21,North,4,0.0,0.0,30,0.00,,---,0.00,VWS V14.01,2013-04-22 16:15:00,
2013-04-22 09:19:00,70.2,44.7,29.32,NE,55,0.0,4.0,40,0.00,,---,0.00,VWS V14.01,2013-04-22 16:19:00,
2013-04-22 09:20:00,70.0,37.2,29.21,North,4,0.0,0.0,30,0.00,,---,0.00,VWS V14.01,2013-04-22 16:20:00,
2013-04-22 09:24:00,70.5,45.1,29.32,ENE,61,3.1,4.9,40,0.00,,---,0.00,VWS V14.01,2013-04-22 16:24:00,
2013-04-22 09:25:00,70.0,37.2,29.21,North,4,0.0,0.0,30,0.00,,---,0.00,VWS V14.01,2013-04-22 16:25:00,
2013-04-22 09:29:00,71.1,45.5,29.32,ENE,70,0.0,3.1,40,0.00,,---,0.00,VWS V14.01,2013-04-22 16:29:00,
2013-04-22 09:30:00,69.6,36.8,29.21,North,4,0.0,0.0,30,0.00,,---,0.00,VWS V14.01,2013-04-22 16:30:00,
2013-04-22 09:34:00,71.6,46.0,29.32,ENE,69,2.7,2.7,40,0.00,,---,0.00,VWS V14.01,2013-04-22 16:34:00,
2013-04-22 09:35:00,68.7,36.1,29.21,North,10,0.0,0.0,30,0.00,,---,0.00,VWS V14.01,2013-04-22 16:35:00,
2013-04-22 09:39:00,72.0,46.3,29.32,NNE,13,0.0,2.7,40,0.00,,---,0.00,VWS V14.01,2013-04-22 16:39:00,
2013-04-22 09:40:00,68.4,36.6,29.21,North,10,0.0,0.0,31,0.00,,---,0.00,VWS V14.01,2013-04-22 16:40:00,
2013-04-22 09:45:00,68.4,36.6,29.21,North,10,0.0,0.0,31,0.00,,---,0.00,VWS V14.01,2013-04-22 16:45:00,
2013-04-22 09:49:00,73.0,48.0,29.32,SE,137,0.0,3.6,41,0.00,,---,0.00,VWS V14.01,2013-04-22 16:49:00,
2013-04-22 09:50:00,68.2,37.2,29.21,NNE,15,0.0,0.0,32,0.00,,---,0.00,VWS V14.01,2013-04-22 16:50:00,
2013-04-22 09:54:00,73.6,48.5,29.32,SW,216,0.0,4.0,41,0.00,,---,0.00,VWS V14.01,2013-04-22 16:54:00,
2013-04-22 09:55:00,67.8,36.9,29.21,NNE,15,0.0,0.0,32,0.00,,---,0.00,VWS V14.01,2013-04-22 16:55:00,
2013-04-22 10:00:00,67.5,36.6,29.21,NNE,15,0.0,0.0,32,0.00,,---,0.00,VWS V14.01,2013-04-22 17:00:00,
2013-04-22 10:04:00,74.7,48.8,29.29,South,182,2.7,3.1,40,0.00,,---,0.00,VWS V14.01,2013-04-22 17:04:00,
2013-04-22 10:05:00,67.6,37.5,29.21,NE,41,0.0,0.0,33,0.00,,---,0.00,VWS V14.01,2013-04-22 17:05:00,
2013-04-22 10:09:00,75.2,48.6,29.29,SSW,199,2.2,3.6,39,0.00,,---,0.00,VWS V14.01,2013-04-22 17:09:00,
2013-04-22 10:10:00,67.6,37.5,29.21,NNE,25,0.0,0.0,33,0.00,,---,0.00,VWS V14.01,2013-04-22 17:10:00,
2013-04-22 10:14:00,75.6,48.2,29.29,South,187,2.2,3.1,38,0.00,,---,0.00,VWS V14.01,2013-04-22 17:14:00,
2013-04-22 10:15:00,66.9,38.4,29.21,NE,35,0.0,0.0,35,0.00,,---,0.00,VWS V14.01,2013-04-22 17:15:00,
2013-04-22 10:19:00,75.9,48.5,29.32,SE,134,2.7,4.9,38,0.00,,---,0.00,VWS V14.01,2013-04-22 17:19:00,
2013-04-22 10:20:00,66.0,39.0,29.21,NNE,26,0.0,0.0,37,0.00,,---,0.00,VWS V14.01,2013-04-22 17:20:00,
2013-04-22 10:24:00,76.3,48.8,29.32,SSW,200,3.1,4.0,38,0.00,,---,0.00,VWS V14.01,2013-04-22 17:24:00,
2013-04-22 10:25:00,65.1,39.6,29.21,NNE,17,4.9,5.4,39,0.00,,---,0.00,VWS V14.01,2013-04-22 17:25:00,
2013-04-22 10:30:00,64.9,38.1,29.21,NNW,341,3.6,8.1,37,0.00,,---,0.00,VWS V14.01,2013-04-22 17:30:00,
2013-04-22 10:34:00,76.5,49.0,29.32,SE,125,2.2,4.0,38,0.00,,---,0.00,VWS V14.01,2013-04-22 17:34:00,
2013-04-22 10:35:00,65.1,38.2,29.21,NE,48,4.9,5.8,37,0.00,,---,0.00,VWS V14.01,2013-04-22 17:35:00,
2013-04-22 10:40:00,65.1,37.5,29.21,NNE,28,4.0,5.4,36,0.00,,---,0.00,VWS V14.01,2013-04-22 17:40:00,
2013-04-22 10:44:00,77.0,48.8,29.32,South,182,2.7,4.9,37,0.00,,---,0.00,VWS V14.01,2013-04-22 17:44:00,
2013-04-22 10:45:00,65.7,38.0,29.21,NNE,19,2.7,4.0,36,0.00,,---,0.00,VWS V14.01,2013-04-22 17:45:00,
2013-04-22 10:50:00,64.9,37.4,29.21,North,3,2.7,3.1,36,0.00,,---,0.00,VWS V14.01,2013-04-22 17:50:00,
2013-04-22 10:54:00,77.2,45.9,29.32,NE,36,0.0,3.6,33,0.00,,---,0.00,VWS V14.01,2013-04-22 17:54:00,
2013-04-22 10:55:00,64.8,37.2,29.21,ENE,65,6.3,6.3,36,0.00,,---,0.00,VWS V14.01,2013-04-22 17:55:00,
2013-04-22 11:00:00,64.8,37.2,29.21,NNE,21,3.1,6.3,36,0.00,,---,0.00,VWS V14.01,2013-04-22 18:00:00,
2013-04-22 11:04:00,77.2,45.9,29.32,WNW,301,4.0,4.0,33,0.00,,---,0.00,VWS V14.01,2013-04-22 18:04:00,
2013-04-22 11:05:00,64.4,37.6,29.21,ENE,70,3.6,5.8,37,0.00,,---,0.00,VWS V14.01,2013-04-22 18:05:00,
2013-04-22 11:09:00,77.2,45.1,29.32,West,276,2.7,4.5,32,0.00,,---,0.00,VWS V14.01,2013-04-22 18:09:00,
2013-04-22 11:10:00,64.2,38.1,29.21,ENE,76,0.0,3.6,38,0.00,,---,0.00,VWS V14.01,2013-04-22 18:10:00,
2013-04-22 11:15:00,63.9,38.5,29.21,North,2,3.6,5.8,39,0.00,,---,0.00,VWS V14.01,2013-04-22 18:15:00,
2013-04-22 11:19:00,77.9,45.7,29.32,SSW,203,3.1,4.0,32,0.00,,---,0.00,VWS V14.01,2013-04-22 18:19:00,
2013-04-22 11:20:00,63.9,37.8,29.21,North,353,2.7,5.8,38,0.00,,---,0.00,VWS V14.01,2013-04-22 18:20:00,
2013-04-22 11:25:00,63.9,37.8,29.21,NE,49,2.7,5.4,38,0.00,,---,0.00,VWS V14.01,2013-04-22 18:25:00,
2013-04-22 11:29:00,78.1,45.8,29.32,West,263,0.0,5.4,32,0.00,,---,0.00,VWS V14.01,2013-04-22 18:29:00,
2013-04-22 11:30:00,64.2,38.1,29.21,NE,45,4.0,6.3,38,0.00,,---,0.00,VWS V14.01,2013-04-22 18:30:00,
2013-04-22 11:34:00,78.1,45.8,29.32,West,265,4.0,4.0,32,0.00,,---,0.00,VWS V14.01,2013-04-22 18:34:00,
2013-04-22 11:35:00,64.4,37.6,29.21,NE,54,5.8,7.6,37,0.00,,---,0.00,VWS V14.01,2013-04-22 18:35:00,
2013-04-22 11:40:00,64.4,38.3,29.21,North,357,3.1,5.8,38,0.00,,---,0.00,VWS V14.01,2013-04-22 18:40:00,
2013-04-22 11:44:00,78.1,46.7,29.32,SW,220,4.9,6.7,33,0.00,,---,0.00,VWS V14.01,2013-04-22 18:44:00,
2013-04-22 11:45:00,64.0,38.6,29.21,NNW,335,2.7,4.9,39,0.00,,---,0.00,VWS V14.01,2013-04-22 18:45:00,
2013-04-22 11:50:00,63.9,38.5,29.21,NNE,25,3.1,8.1,39,0.00,,---,0.00,VWS V14.01,2013-04-22 18:50:00,
2013-04-22 11:54:00,78.6,45.5,29.32,ESE,122,3.1,4.0,31,0.00,,---,0.00,VWS V14.01,2013-04-22 18:54:00,
2013-04-22 11:55:00,63.7,38.9,29.21,NE,46,7.2,7.6,40,0.00,,---,0.00,VWS V14.01,2013-04-22 18:55:00,
2013-04-22 11:59:00,78.8,44.8,29.32,South,173,0.0,4.0,30,0.00,,---,0.00,VWS V14.01,2013-04-22 18:59:00,
2013-04-22 12:00:00,63.5,38.8,29.21,NE,39,3.1,7.6,40,0.00,,---,0.00,VWS V14.01,2013-04-22 19:00:00,
2013-04-22 12:05:00,63.5,38.8,29.21,East,94,5.8,8.3,40,0.00,,---,0.00,VWS V14.01,2013-04-22 19:05:00,
2013-04-22 12:09:00,79.2,45.1,29.29,NNW,345,0.0,3.6,30,0.00,,---,0.00,VWS V14.01,2013-04-22 19:09:00,
2013-04-22 12:10:00,63.5,38.8,29.21,NNE,24,3.6,8.1,40,0.00,,---,0.00,VWS V14.01,2013-04-22 19:10:00,
2013-04-22 12:14:00,79.0,44.9,29.29,NW,306,3.1,5.4,30,0.00,,---,0.00,VWS V14.01,2013-04-22 19:14:00,
2013-04-22 12:15:00,63.3,38.6,29.21,West,264,2.7,4.0,40,0.00,,---,0.00,VWS V14.01,2013-04-22 19:15:00,
2013-04-22 12:19:00,79.3,46.1,29.29,SSW,205,0.0,4.9,31,0.00,,---,0.00,VWS V14.01,2013-04-22 19:19:00,
2013-04-22 12:20:00,63.1,38.5,29.23,West,276,0.0,5.4,40,0.00,,---,0.00,VWS V14.01,2013-04-22 19:20:00,
2013-04-22 12:25:00,63.0,38.3,29.23,SW,219,0.0,0.0,40,0.00,,---,0.00,VWS V14.01,2013-04-22 19:25:00,
2013-04-22 12:29:00,80.2,46.0,29.29,North,11,6.7,6.7,30,0.00,,---,0.00,VWS V14.01,2013-04-22 19:29:00,
2013-04-22 12:30:00,63.0,38.3,29.23,WSW,238,2.2,4.0,40,0.00,,---,0.00,VWS V14.01,2013-04-22 19:30:00,
2013-04-22 12:34:00,80.4,45.3,29.29,NNW,329,4.9,6.7,29,0.00,,---,0.00,VWS V14.01,2013-04-22 19:34:00,
2013-04-22 12:35:00,63.5,35.4,29.23,SSE,168,2.7,4.0,35,0.00,,---,0.00,VWS V14.01,2013-04-22 19:35:00,
2013-04-22 12:40:00,65.1,35.3,29.23,WNW,295,2.2,4.9,33,0.00,,---,0.00,VWS V14.01,2013-04-22 19:40:00,
2013-04-22 12:44:00,79.9,44.8,29.29,SE,140,0.0,5.8,29,0.00,,---,0.00,VWS V14.01,2013-04-22 19:44:00,
2013-04-22 12:45:00,66.0,35.3,29.23,WNW,283,3.1,4.0,32,0.00,,---,0.00,VWS V14.01,2013-04-22 19:45:00,
2013-04-22 12:50:00,66.0,35.3,29.23,WNW,284,4.0,6.3,32,0.00,,---,0.00,VWS V14.01,2013-04-22 19:50:00,
2013-04-22 12:54:00,79.9,43.9,29.29,NNE,27,3.1,5.4,28,0.00,,---,0.00,VWS V14.01,2013-04-22 19:54:00,
2013-04-22 12:55:00,66.0,35.3,29.23,West,269,2.7,5.8,32,0.00,,---,0.00,VWS V14.01,2013-04-22 19:55:00,
2013-04-22 12:59:00,80.1,45.0,29.29,ENE,72,2.2,6.3,29,0.00,,---,0.00,VWS V14.01,2013-04-22 19:59:00,
2013-04-22 13:00:00,65.8,35.2,29.23,WNW,296,2.2,6.3,32,0.00,,---,0.00,VWS V14.01,2013-04-22 20:00:00,
2013-04-22 13:05:00,65.5,34.9,29.23,NNW,327,2.7,4.5,32,0.00,,---,0.00,VWS V14.01,2013-04-22 20:05:00,
2013-04-22 13:09:00,81.3,45.1,29.29,WNW,283,3.1,4.9,28,0.00,,---,0.00,VWS V14.01,2013-04-22 20:09:00,
2013-04-22 13:10:00,65.1,35.3,29.23,NE,40,0.0,3.6,33,0.00,,---,0.00,VWS V14.01,2013-04-22 20:10:00,
2013-04-22 13:14:00,81.3,45.1,29.29,NW,315,4.9,5.8,28,0.00,,---,0.00,VWS V14.01,2013-04-22 20:14:00,
2013-04-22 13:15:00,64.0,35.1,29.23,NNE,30,0.0,0.0,34,0.00,,---,0.00,VWS V14.01,2013-04-22 20:15:00,
2013-04-22 13:19:00,81.3,44.2,29.26,NE,42,2.7,6.3,27,0.00,,---,0.00,VWS V14.01,2013-04-22 20:19:00,
2013-04-22 13:20:00,63.5,35.4,29.23,NW,326,0.0,3.1,35,0.00,,---,0.00,VWS V14.01,2013-04-22 20:20:00,
2013-04-22 13:24:00,81.7,44.5,29.26,North,0,0.0,8.1,27,0.00,,---,0.00,VWS V14.01,2013-04-22 20:24:00,
2013-04-22 13:25:00,62.8,36.8,29.23,ENE,75,0.0,4.0,38,0.00,,---,0.00,VWS V14.01,2013-04-22 20:25:00,
2013-04-22 13:29:00,82.4,44.1,29.26,East,91,0.0,5.4,26,0.00,,---,0.00,VWS V14.01,2013-04-22 20:29:00,
2013-04-22 13:30:00,62.2,35.7,29.23,West,276,0.0,3.1,37,0.00,,---,0.00,VWS V14.01,2013-04-22 20:30:00,
2013-04-22 13:34:00,82.8,44.4,29.26,North,4,2.7,6.3,26,0.00,,---,0.00,VWS V14.01,2013-04-22 20:34:00,
2013-04-22 13:35:00,61.7,37.8,29.23,NW,314,0.0,0.0,41,0.00,,---,0.00,VWS V14.01,2013-04-22 20:35:00,
2013-04-22 13:40:00,61.2,37.3,29.23,NW,314,0.0,0.0,41,0.00,,---,0.00,VWS V14.01,2013-04-22 20:40:00,
2013-04-22 13:44:00,82.9,44.6,29.26,West,265,0.0,8.1,26,0.00,,---,0.00,VWS V14.01,2013-04-22 20:44:00,
2013-04-22 13:45:00,60.8,37.6,29.23,NW,314,0.0,0.0,42,0.00,,---,0.00,VWS V14.01,2013-04-22 20:45:00,
2013-04-22 13:49:00,82.8,44.4,29.26,NNW,339,0.0,8.3,26,0.00,,---,0.00,VWS V14.01,2013-04-22 20:49:00,
2013-04-22 13:50:00,60.4,37.3,29.23,NW,314,0.0,0.0,42,0.00,,---,0.00,VWS V14.01,2013-04-22 20:50:00,
2013-04-22 13:55:00,59.9,37.4,29.23,NW,314,0.0,0.0,43,0.00,,---,0.00,VWS V14.01,2013-04-22 20:55:00,
2013-04-22 13:59:00,83.7,42.0,29.26,NNW,335,5.8,7.6,23,0.00,,---,0.00,VWS V14.01,2013-04-22 20:59:00,
2013-04-22 14:00:00,59.7,36.6,29.23,NW,314,0.0,0.0,42,0.00,,---,0.00,VWS V14.01,2013-04-22 21:00:00,
2013-04-22 14:05:00,59.5,36.5,29.23,NW,314,0.0,0.0,42,0.00,,---,0.00,VWS V14.01,2013-04-22 21:05:00,
2013-04-22 14:09:00,83.7,42.0,29.26,NNE,27,2.7,5.4,23,0.00,,---,0.00,VWS V14.01,2013-04-22 21:09:00,
2013-04-22 14:10:00,59.7,36.0,29.23,NW,314,0.0,0.0,41,0.00,,---,0.00,VWS V14.01,2013-04-22 21:10:00,
2013-04-22 14:15:00,59.4,35.7,29.23,NE,55,0.0,0.0,41,0.00,,---,0.00,VWS V14.01,2013-04-22 21:15:00,
2013-04-22 14:19:00,83.8,42.1,29.26,North,0,4.0,5.8,23,0.00,,---,0.00,VWS V14.01,2013-04-22 21:19:00,
2013-04-22 14:20:00,59.2,35.5,29.23,NE,55,0.0,0.0,41,0.00,,---,0.00,VWS V14.01,2013-04-22 21:20:00,
2013-04-22 14:25:00,58.6,37.4,29.23,NNE,19,0.0,0.0,45,0.00,,---,0.00,VWS V14.01,2013-04-22 21:25:00,
2013-04-22 14:29:00,84.6,42.7,29.26,South,187,2.7,5.8,23,0.00,,---,0.00,VWS V14.01,2013-04-22 21:29:00,
2013-04-22 14:30:00,58.3,36.5,29.23,North,0,0.0,3.6,44,0.00,,---,0.00,VWS V14.01,2013-04-22 21:30:00,
2013-04-22 14:34:00,85.1,39.6,29.26,ESE,115,3.6,4.9,20,0.00,,---,0.00,VWS V14.01,2013-04-22 21:34:00,
2013-04-22 14:35:00,59.4,33.8,29.24,NNW,331,3.1,5.4,38,0.00,,---,0.00,VWS V14.01,2013-04-22 21:35:00,
2013-04-22 14:40:00,59.7,35.4,29.23,NW,307,2.7,6.3,40,0.00,,---,0.00,VWS V14.01,2013-04-22 21:40:00,
2013-04-22 14:44:00,84.9,39.4,29.26,SSE,151,3.6,7.6,20,0.00,,---,0.00,VWS V14.01,2013-04-22 21:44:00,
2013-04-22 14:45:00,60.6,34.2,29.23,NW,319,2.7,6.3,37,0.00,,---,0.00,VWS V14.01,2013-04-22 21:45:00,
2013-04-22 14:49:00,84.9,39.4,29.23,SE,137,3.1,4.0,20,0.00,,---,0.00,VWS V14.01,2013-04-22 21:49:00,
2013-04-22 14:50:00,61.2,34.0,29.23,NW,313,2.2,5.8,36,0.00,,---,0.00,VWS V14.01,2013-04-22 21:50:00,
2013-04-22 14:55:00,59.7,37.2,29.23,NNW,339,4.0,4.0,43,0.00,,---,0.00,VWS V14.01,2013-04-22 21:55:00,
2013-04-22 14:59:00,85.3,39.7,29.23,South,169,3.6,5.4,20,0.00,,---,0.00,VWS V14.01,2013-04-22 21:59:00,
2013-04-22 15:00:00,59.0,37.7,29.23,NE,51,0.0,4.9,45,0.00,,---,0.00,VWS V14.01,2013-04-22 22:00:00,
2013-04-22 15:05:00,57.9,37.3,29.23,NE,35,0.0,0.0,46,0.00,,---,0.00,VWS V14.01,2013-04-22 22:05:00,
2013-04-22 15:09:00,84.9,36.7,29.23,North,350,2.7,8.7,18,0.00,,---,0.00,VWS V14.01,2013-04-22 22:09:00,
2013-04-22 15:10:00,57.4,38.9,29.23,NE,49,0.0,2.2,50,0.00,,---,0.00,VWS V14.01,2013-04-22 22:10:00,
2013-04-22 15:15:00,56.7,39.2,29.23,NNW,339,0.0,0.0,52,0.00,,---,0.00,VWS V14.01,2013-04-22 22:15:00,
2013-04-22 15:19:00,85.1,36.9,29.23,North,7,4.9,7.6,18,0.00,,---,0.00,VWS V14.01,2013-04-22 22:19:00,
2013-04-22 15:20:00,56.3,36.3,29.23,NW,321,0.0,3.6,47,0.00,,---,0.00,VWS V14.01,2013-04-22 22:20:00,
2013-04-22 15:24:00,85.1,36.9,29.23,NNE,12,4.0,5.8,18,0.00,,---,0.00,VWS V14.01,2013-04-22 22:24:00,
2013-04-22 15:25:00,56.8,35.7,29.23,NNW,344,0.0,4.0,45,0.00,,---,0.00,VWS V14.01,2013-04-22 22:25:00,
2013-04-22 15:30:00,56.3,37.4,29.23,NE,48,0.0,3.1,49,0.00,,---,0.00,VWS V14.01,2013-04-22 22:30:00,
2013-04-22 15:34:00,85.1,36.9,29.23,SSW,203,0.0,6.3,18,0.00,,---,0.00,VWS V14.01,2013-04-22 22:34:00,
2013-04-22 15:35:00,55.8,37.9,29.23,NE,34,0.0,3.6,51,0.00,,---,0.00,VWS V14.01,2013-04-22 22:35:00,
2013-04-22 15:40:00,55.2,37.9,29.23,ENE,61,2.7,3.6,52,0.00,,---,0.00,VWS V14.01,2013-04-22 22:40:00,
2013-04-22 15:45:00,54.9,38.1,29.23,ENE,68,2.7,2.7,53,0.00,,---,0.00,VWS V14.01,2013-04-22 22:45:00,
2013-04-22 15:49:00,84.9,36.7,29.23,WNW,300,3.1,6.3,18,0.00,,---,0.00,VWS V14.01,2013-04-22 22:49:00,
2013-04-22 15:50:00,54.5,37.7,29.23,WNW,293,0.0,2.7,53,0.00,,---,0.00,VWS V14.01,2013-04-22 22:50:00,
2013-04-22 15:54:00,84.7,36.6,29.23,NNE,16,3.6,7.2,18,0.00,,---,0.00,VWS V14.01,2013-04-22 22:54:00,
2013-04-22 15:55:00,54.5,37.2,29.23,WNW,293,0.0,0.0,52,0.00,,---,0.00,VWS V14.01,2013-04-22 22:55:00,
2013-04-22 16:00:00,54.5,35.8,29.23,WNW,293,0.0,0.0,49,0.00,,---,0.00,VWS V14.01,2013-04-22 23:00:00,
2013-04-22 16:04:00,84.7,36.6,29.23,NW,311,2.7,7.2,18,0.00,,---,0.00,VWS V14.01,2013-04-22 23:04:00,
2013-04-22 16:05:00,54.3,35.6,29.23,West,263,0.0,0.0,49,0.00,,---,0.00,VWS V14.01,2013-04-22 23:05:00,
2013-04-22 16:09:00,84.6,36.4,29.23,North,353,0.0,6.3,18,0.00,,---,0.00,VWS V14.01,2013-04-22 23:09:00,
2013-04-22 16:10:00,54.1,35.9,29.23,West,263,0.0,0.0,50,0.00,,---,0.00,VWS V14.01,2013-04-22 23:10:00,
2013-04-22 16:15:00,54.1,35.4,29.23,West,263,0.0,0.0,49,0.00,,---,0.00,VWS V14.01,2013-04-22 23:15:00,
2013-04-22 16:19:00,84.2,36.2,29.23,NNW,340,3.1,8.1,18,0.00,,---,0.00,VWS V14.01,2013-04-22 23:19:00,
2013-04-22 16:20:00,54.0,35.2,29.23,West,263,0.0,0.0,49,0.00,,---,0.00,VWS V14.01,2013-04-22 23:20:00,
2013-04-22 16:25:00,53.8,35.1,29.23,West,263,0.0,0.0,49,0.00,,---,0.00,VWS V14.01,2013-04-22 23:25:00,
2013-04-22 16:29:00,84.0,33.0,29.23,North,0,2.7,8.1,16,0.00,,---,0.00,VWS V14.01,2013-04-22 23:29:00,
2013-04-22 16:30:00,53.6,34.9,29.23,West,263,0.0,0.0,49,0.00,,---,0.00,VWS V14.01,2013-04-22 23:30:00,
2013-04-22 16:34:00,84.0,33.0,29.21,WNW,299,4.9,11.0,16,0.00,,---,0.00,VWS V14.01,2013-04-22 23:34:00,
2013-04-22 16:35:00,53.4,34.8,29.23,West,263,0.0,0.0,49,0.00,,---,0.00,VWS V14.01,2013-04-22 23:35:00,
2013-04-22 16:40:00,53.4,33.2,29.23,West,263,0.0,0.0,46,0.00,,---,0.00,VWS V14.01,2013-04-22 23:40:00,
2013-04-22 16:44:00,83.7,32.8,29.21,WNW,300,4.0,4.9,16,0.00,,---,0.00,VWS V14.01,2013-04-22 23:44:00,
2013-04-22 16:45:00,53.6,32.8,29.24,West,263,0.0,0.0,45,0.00,,---,0.00,VWS V14.01,2013-04-22 23:45:00,
2013-04-22 16:50:00,53.4,32.6,29.24,North,0,0.0,0.0,45,0.00,,---,0.00,VWS V14.01,2013-04-22 23:50:00,
2013-04-22 16:55:00,53.2,33.5,29.24,North,357,0.0,0.0,47,0.00,,---,0.00,VWS V14.01,2013-04-22 23:55:00,
2013-04-22 17:00:00,52.9,35.8,29.23,North,6,0.0,0.0,52,0.00,,---,0.00,VWS V14.01,2013-04-23 00:00:00,
2013-04-22 17:04:00,82.8,32.0,29.21,NNW,338,6.3,8.3,16,0.00,,---,0.00,VWS V14.01,2013-04-23 00:04:00,
2013-04-22 17:05:00,52.3,37.1,29.23,North,6,0.0,0.0,56,0.00,,---,0.00,VWS V14.01,2013-04-23 00:05:00,
2013-04-22 17:10:00,52.3,35.7,29.23,North,353,0.0,3.1,53,0.00,,---,0.00,VWS V14.01,2013-04-23 00:10:00,
2013-04-22 17:14:00,82.8,32.0,29.21,NE,44,2.7,13.2,16,0.00,,---,0.00,VWS V14.01,2013-04-23 00:14:00,
2013-04-22 17:15:00,52.5,34.9,29.24,North,353,0.0,0.0,51,0.00,,---,0.00,VWS V14.01,2013-04-23 00:15:00,
2013-04-22 17:19:00,82.6,31.9,29.21,WNW,297,3.1,6.3,16,0.00,,---,0.00,VWS V14.01,2013-04-23 00:19:00,
2013-04-22 17:20:00,52.3,34.3,29.23,North,353,0.0,0.0,50,0.00,,---,0.00,VWS V14.01,2013-04-23 00:20:00,
2013-04-22 17:25:00,52.0,34.9,29.23,North,353,0.0,0.0,52,0.00,,---,0.00,VWS V14.01,2013-04-23 00:25:00,
2013-04-22 17:30:00,51.8,34.3,29.23,North,353,0.0,0.0,51,0.00,,---,0.00,VWS V14.01,2013-04-23 00:30:00,
2013-04-22 17:35:00,51.4,34.4,29.23,North,353,0.0,0.0,52,0.00,,---,0.00,VWS V14.01,2013-04-23 00:35:00,
2013-04-22 17:40:00,51.3,34.7,29.23,North,353,0.0,0.0,53,0.00,,---,0.00,VWS V14.01,2013-04-23 00:40:00,
2013-04-22 17:45:00,51.1,33.6,29.23,North,353,0.0,0.0,51,0.00,,---,0.00,VWS V14.01,2013-04-23 00:45:00,
2013-04-22 17:50:00,51.3,31.7,29.23,North,353,0.0,0.0,47,0.00,,---,0.00,VWS V14.01,2013-04-23 00:50:00,
2013-04-22 17:55:00,51.4,31.4,29.24,North,353,0.0,0.0,46,0.00,,---,0.00,VWS V14.01,2013-04-23 00:55:00,
2013-04-22 18:00:00,51.3,31.2,29.23,North,353,0.0,0.0,46,0.00,,---,0.00,VWS V14.01,2013-04-23 01:00:00,
2013-04-22 18:05:00,51.1,31.0,29.24,North,353,0.0,0.0,46,0.00,,---,0.00,VWS V14.01,2013-04-23 01:05:00,
2013-04-22 18:10:00,50.9,31.4,29.24,North,353,0.0,0.0,47,0.00,,---,0.00,VWS V14.01,2013-04-23 01:10:00,
2013-04-22 18:15:00,50.9,31.4,29.23,North,353,0.0,0.0,47,0.00,,---,0.00,VWS V14.01,2013-04-23 01:15:00,
2013-04-22 18:20:00,50.9,30.3,29.24,North,353,0.0,0.0,45,0.00,,---,0.00,VWS V14.01,2013-04-23 01:20:00,
2013-04-22 18:25:00,51.1,30.5,29.24,North,353,0.0,0.0,45,0.00,,---,0.00,VWS V14.01,2013-04-23 01:25:00,
2013-04-22 18:30:00,51.3,30.1,29.23,North,353,0.0,0.0,44,0.00,,---,0.00,VWS V14.01,2013-04-23 01:30:00,
2013-04-22 18:35:00,51.4,30.3,29.24,North,353,0.0,0.0,44,0.00,,---,0.00,VWS V14.01,2013-04-23 01:35:00,
2013-04-22 18:40:00,51.6,30.4,29.24,North,353,0.0,0.0,44,0.00,,---,0.00,VWS V14.01,2013-04-23 01:40:00,
2013-04-22 18:45:00,51.8,30.0,29.24,North,353,0.0,0.0,43,0.00,,---,0.00,VWS V14.01,2013-04-23 01:45:00,
2013-04-22 18:50:00,52.2,30.9,29.23,North,353,0.0,0.0,44,0.00,,---,0.00,VWS V14.01,2013-04-23 01:50:00,
2013-04-22 18:55:00,52.0,31.9,29.23,North,353,0.0,0.0,46,0.00,,---,0.00,VWS V14.01,2013-04-23 01:55:00,
2013-04-22 19:00:00,52.2,33.1,29.24,North,353,0.0,0.0,48,0.00,,---,0.00,VWS V14.01,2013-04-23 02:00:00,
2013-04-22 19:05:00,52.7,36.1,29.26,North,353,0.0,0.0,53,0.00,,---,0.00,VWS V14.01,2013-04-23 02:05:00,
2013-04-22 19:10:00,52.7,37.0,29.26,North,353,0.0,0.0,55,0.00,,---,0.00,VWS V14.01,2013-04-23 02:10:00,
2013-04-22 19:15:00,52.9,37.2,29.26,North,353,0.0,0.0,55,0.00,,---,0.00,VWS V14.01,2013-04-23 02:15:00,
2013-04-22 19:20:00,53.2,38.0,29.26,North,357,0.0,0.0,56,0.00,,---,0.00,VWS V14.01,2013-04-23 02:20:00,
2013-04-22 19:25:00,53.4,37.7,29.26,East,83,2.7,2.7,55,0.00,,---,0.00,VWS V14.01,2013-04-23 02:25:00,
2013-04-22 19:30:00,54.0,36.8,29.26,ENE,65,0.0,2.7,52,0.00,,---,0.00,VWS V14.01,2013-04-23 02:30:00,
2013-04-22 19:35:00,54.7,36.9,29.26,ENE,76,0.0,3.6,51,0.00,,---,0.00,VWS V14.01,2013-04-23 02:35:00,
2013-04-22 19:40:00,55.4,36.1,29.26,ENE,76,0.0,0.0,48,0.00,,---,0.00,VWS V14.01,2013-04-23 02:40:00,
2013-04-22 19:45:00,56.3,34.1,29.26,ENE,76,0.0,0.0,43,0.00,,---,0.00,VWS V14.01,2013-04-23 02:45:00,
2013-04-22 19:50:00,57.2,34.9,29.26,ENE,76,0.0,0.0,43,0.00,,---,0.00,VWS V14.01,2013-04-23 02:50:00,
2013-04-22 19:55:00,57.9,36.7,29.26,ENE,76,0.0,0.0,45,0.00,,---,0.00,VWS V14.01,2013-04-23 02:55:00,
2013-04-22 20:00:00,58.5,37.8,29.26,East,79,0.0,0.0,46,0.00,,---,0.00,VWS V14.01,2013-04-23 03:00:00,
2013-04-22 20:05:00,58.8,37.0,29.26,NE,49,0.0,0.0,44,0.00,,---,0.00,VWS V14.01,2013-04-23 03:05:00,
2013-04-22 20:10:00,59.4,36.9,29.26,ENE,73,2.2,4.0,43,0.00,,---,0.00,VWS V14.01,2013-04-23 03:10:00,
2013-04-22 20:15:00,59.5,35.8,29.26,NNE,33,2.7,4.0,41,0.00,,---,0.00,VWS V14.01,2013-04-23 03:15:00,
2013-04-22 20:20:00,60.1,35.1,29.26,NE,54,2.7,3.6,39,0.00,,---,0.00,VWS V14.01,2013-04-23 03:20:00,
2013-04-22 20:25:00,60.6,36.2,29.26,NE,54,0.0,2.7,40,0.00,,---,0.00,VWS V14.01,2013-04-23 03:25:00,
2013-04-22 20:30:00,61.0,35.2,29.26,NE,54,0.0,0.0,38,0.00,,---,0.00,VWS V14.01,2013-04-23 03:30:00,
2013-04-22 20:35:00,61.7,35.2,29.26,East,100,0.0,0.0,37,0.00,,---,0.00,VWS V14.01,2013-04-23 03:35:00,
2013-04-22 20:40:00,62.4,35.8,29.26,WNW,302,2.7,4.0,37,0.00,,---,0.00,VWS V14.01,2013-04-23 03:40:00,
2013-04-22 20:45:00,63.5,34.7,29.26,WNW,294,0.0,2.7,34,0.00,,---,0.00,VWS V14.01,2013-04-23 03:45:00,
2013-04-22 20:50:00,64.6,34.8,29.26,SSW,198,0.0,3.1,33,0.00,,---,0.00,VWS V14.01,2013-04-23 03:50:00,
2013-04-22 20:55:00,65.1,33.8,29.26,North,9,5.4,8.1,31,0.00,,---,0.00,VWS V14.01,2013-04-23 03:55:00,
2013-04-22 21:00:00,65.1,33.8,29.26,NNW,330,0.0,6.3,31,0.00,,---,0.00,VWS V14.01,2013-04-23 04:00:00,
2013-04-22 21:05:00,65.7,34.2,29.26,North,349,0.0,7.2,31,0.00,,---,0.00,VWS V14.01,2013-04-23 04:05:00,
2013-04-22 21:10:00,66.0,34.5,29.26,NNW,346,2.2,6.3,31,0.00,,---,0.00,VWS V14.01,2013-04-23 04:10:00,
2013-04-22 21:15:00,66.4,35.7,29.26,ENE,72,3.1,4.0,32,0.00,,---,0.00,VWS V14.01,2013-04-23 04:15:00,
2013-04-22 21:20:00,66.7,36.8,29.26,NE,52,2.7,4.5,33,0.00,,---,0.00,VWS V14.01,2013-04-23 04:20:00,
2013-04-22 21:25:00,67.1,36.3,29.26,ENE,73,3.1,3.6,32,0.00,,---,0.00,VWS V14.01,2013-04-23 04:25:00,
2013-04-22 21:30:00,67.6,36.8,29.26,ENE,73,0.0,3.1,32,0.00,,---,0.00,VWS V14.01,2013-04-23 04:30:00,
2013-04-22 21:35:00,68.2,36.4,29.26,NNW,346,0.0,0.0,31,0.00,,---,0.00,VWS V14.01,2013-04-23 04:35:00,
2013-04-22 21:40:00,68.4,36.6,29.26,ENE,71,2.2,4.0,31,0.00,,---,0.00,VWS V14.01,2013-04-23 04:40:00,
2013-04-22 21:45:00,69.4,36.7,29.26,NE,37,2.7,3.6,30,0.00,,---,0.00,VWS V14.01,2013-04-23 04:45:00,
2013-04-22 21:50:00,70.2,37.3,29.26,NE,46,0.0,4.5,30,0.00,,---,0.00,VWS V14.01,2013-04-23 04:50:00,
2013-04-22 21:55:00,70.9,37.9,29.26,SW,215,0.0,3.6,30,0.00,,---,0.00,VWS V14.01,2013-04-23 04:55:00,
2013-04-22 22:00:00,71.2,38.2,29.26,WNW,300,2.7,6.3,30,0.00,,---,0.00,VWS V14.01,2013-04-23 05:00:00,
2013-04-22 22:05:00,71.4,38.4,29.26,North,350,2.7,3.6,30,0.00,,---,0.00,VWS V14.01,2013-04-23 05:05:00,
2013-04-22 22:10:00,71.2,38.2,29.26,NW,316,3.1,5.8,30,0.00,,---,0.00,VWS V14.01,2013-04-23 05:10:00,
2013-04-22 22:15:00,71.6,37.7,29.26,NNW,328,3.1,4.0,29,0.00,,---,0.00,VWS V14.01,2013-04-23 05:15:00,
2013-04-22 22:20:00,71.4,38.4,29.26,WSW,247,2.2,5.8,30,0.00,,---,0.00,VWS V14.01,2013-04-23 05:20:00,
2013-04-22 22:25:00,71.4,38.4,29.26,North,0,4.0,5.4,30,0.00,,---,0.00,VWS V14.01,2013-04-23 05:25:00,
2013-04-22 22:30:00,71.8,37.8,29.26,ENE,57,0.0,5.8,29,0.00,,---,0.00,VWS V14.01,2013-04-23 05:30:00,
2013-04-22 22:35:00,72.3,38.3,29.29,NNW,340,3.6,5.4,29,0.00,,---,0.00,VWS V14.01,2013-04-23 05:35:00,
2013-04-22 22:40:00,72.7,38.6,29.29,NNW,329,6.3,7.6,29,0.00,,---,0.00,VWS V14.01,2013-04-23 05:40:00,
2013-04-22 22:45:00,73.0,38.9,29.29,NNE,22,3.6,6.3,29,0.00,,---,0.00,VWS V14.01,2013-04-23 05:45:00,
2013-04-22 22:50:00,73.8,38.7,29.29,SSE,154,3.6,3.6,28,0.00,,---,0.00,VWS V14.01,2013-04-23 05:50:00,
2013-04-22 22:55:00,74.1,39.0,29.29,West,268,3.1,5.4,28,0.00,,---,0.00,VWS V14.01,2013-04-23 05:55:00,
2013-04-22 23:00:00,74.7,39.4,29.29,WSW,255,0.0,4.0,28,0.00,,---,0.00,VWS V14.01,2013-04-23 06:00:00,
2013-04-22 23:05:00,74.7,39.4,29.29,ENE,75,0.0,8.1,28,0.00,,---,0.00,VWS V14.01,2013-04-23 06:05:00,
2013-04-22 23:10:00,74.7,39.4,29.29,NNW,328,3.6,3.6,28,0.00,,---,0.00,VWS V14.01,2013-04-23 06:10:00,
2013-04-22 23:15:00,75.0,39.7,29.29,WSW,252,2.2,6.3,28,0.00,,---,0.00,VWS V14.01,2013-04-23 06:15:00,
2013-04-22 23:20:00,75.2,39.0,29.29,WSW,250,2.2,8.1,27,0.00,,---,0.00,VWS V14.01,2013-04-23 06:20:00,
2013-04-22 23:25:00,75.7,39.4,29.29,ENE,59,0.0,4.0,27,0.00,,---,0.00,VWS V14.01,2013-04-23 06:25:00,
2013-04-22 23:30:00,76.1,39.7,29.29,WNW,297,3.6,4.9,27,0.00,,---,0.00,VWS V14.01,2013-04-23 06:30:00,
2013-04-22 23:35:00,76.1,37.8,29.26,NNW,346,2.7,6.3,25,0.00,,---,0.00,VWS V14.01,2013-04-23 06:35:00,
2013-04-22 23:40:00,75.9,37.6,29.26,West,263,3.1,5.8,25,0.00,,---,0.00,VWS V14.01,2013-04-23 06:40:00,
2013-04-22 23:45:00,76.5,38.1,29.26,West,265,2.7,4.9,25,0.00,,---,0.00,VWS V14.01,2013-04-23 06:45:00,
2013-04-22 23:50:00,77.0,38.5,29.26,North,357,3.1,5.4,25,0.00,,---,0.00,VWS V14.01,2013-04-23 06:50:00,
2013-04-22 23:55:00,76.8,35.1,29.26,NNW,346,0.0,7.6,22,0.00,,---,0.00,VWS V14.01,2013-04-23 06:55:00,